Potato Creek, South Dakota
Current Conditions -  °F | °C
As of 7:55 PM on Monday 20 Oct 2014 (Local Time) from KPHP Reporting Station
Clear Clear  
Wind Chill: 59°   Ceiling: Unl
Heat Index: 59°   Visibility: 10mi
Dew Point: 41°   Wind: 6mph
Humidity: 51%   Direction: 100°E
Pressure: 29.89"   Gusts: NA
Location:  43.7587°N, 101.898°W
Report Text: KPHP 210155Z AUTO 10005KT 10SM CLR 15/05 A2989 RMK AO2 SLP125 T01500050
Loading
Personal Weather Stations






























Interactive Weather Map
Tropical Storm Tracking
New forecast layout! Learn more

10-Day Weather Forecast

Advertisements
Track Severe Weather on mobile